CheckWX is a tool to help pilots better visualize weather data.  It is not intended as a substitute for an official pre-flight weather briefing.

17:28:11 UTC

LFRM TAF
Le Mans-Arnage Airport
Le Mans/Arnage, France
TAF LFRM 241100Z 2412/2512 02008KT 9999 SCT025 BKN035 BECMG 2416/2418 CAVOK PROB30 TEMPO 2504/2507 3000 BR BKN004 BECMG 2507/2509 FEW010 SCT020

Mar-24@
12:00 UTC

Mar-24 @ 12:00 UTC

Mar-24@
16:00 UTC

Mar-24 @ 16:00 UTC

TAF LFRM 241100Z 2412/2512 02008KT 9999 SCT025 BKN035

Expired

Wind
  • 020° at 8 KTS
Cloud Levels
  • Scattered at 2,500' AGL
  • Broken at 3,500' AGL

Mar-24@
16:00 UTC

Mar-24 @ 16:00 UTC

Mar-25@
07:00 UTC

Mar-25 @ 07:00 UTC

BECMG 2416/2418 CAVOK

Becoming

Becoming Conditions expected by Sun, Mar 24, 2019 @ 18:00 UTC

Wind
  • 020° at 8 KTS
Conditions
No significant weather
Cloud Levels
  • No significant clouds

Mar-25@
04:00 UTC

Mar-25 @ 04:00 UTC

Mar-25@
07:00 UTC

Mar-25 @ 07:00 UTC

PROB30 TEMPO 2504/2507 3000 BR BKN004

Temporary - 30% Likelihood

Temporary - 30% Likelihood during this time.

Conditions
Mist
Cloud Levels
  • Broken at 400' AGL

Mar-25@
07:00 UTC

Mar-25 @ 07:00 UTC

Mar-25@
12:00 UTC

Mar-25 @ 12:00 UTC

BECMG 2507/2509 FEW010 SCT020

Becoming

Becoming Conditions expected by Mon, Mar 25, 2019 @ 09:00 UTC

Wind
  • 020° at 8 KTS
Conditions
No significant weather
Cloud Levels
  • Few at 1,000' AGL
  • Scattered at 2,000' AGL